createdAt,value
2023-02-17T00:01:34.287Z,59.82
2023-02-17T00:04:02.889Z,59.89
2023-02-17T00:06:32.417Z,59.88
2023-02-17T00:09:01.991Z,59.82
2023-02-17T00:11:30.770Z,59.86
2023-02-17T00:14:00.558Z,59.92
2023-02-17T00:16:29.515Z,59.90
2023-02-17T00:19:02.258Z,59.81
2023-02-17T00:21:31.852Z,59.90
2023-02-17T00:24:00.505Z,59.88
2023-02-17T00:26:29.235Z,59.85
2023-02-17T00:28:59.278Z,59.89
2023-02-17T00:31:27.654Z,59.73
2023-02-17T00:33:56.649Z,59.77
2023-02-17T00:36:26.238Z,59.78
2023-02-17T00:38:56.970Z,59.77
2023-02-17T00:41:29.094Z,59.68
2023-02-17T00:43:59.662Z,59.61
2023-02-17T00:46:28.096Z,59.61
2023-02-17T00:48:56.133Z,59.68
2023-02-17T00:51:25.514Z,59.64
2023-02-17T00:53:53.377Z,59.65
2023-02-17T00:56:21.382Z,59.58
2023-02-17T00:58:49.277Z,59.60
2023-02-17T01:01:18.134Z,59.60
2023-02-17T01:03:46.380Z,59.50
2023-02-17T01:06:24.329Z,58.66
2023-02-17T01:08:53.397Z,57.86
2023-02-17T01:11:28.186Z,58.92
2023-02-17T01:13:58.956Z,59.65
2023-02-17T01:16:30.842Z,60.24
2023-02-17T01:19:00.789Z,62.83
2023-02-17T01:21:30.233Z,64.52
2023-02-17T01:24:00.550Z,64.45
2023-02-17T01:26:31.598Z,63.93
2023-02-17T01:29:04.122Z,63.48
2023-02-17T01:31:32.686Z,62.85
2023-02-17T01:34:03.939Z,62.56
2023-02-17T01:36:32.769Z,62.07
2023-02-17T01:39:01.151Z,61.89
2023-02-17T01:41:29.750Z,61.76
2023-02-17T01:44:16.746Z,61.54
2023-02-17T01:46:47.989Z,61.26
2023-02-17T01:49:38.011Z,61.02
2023-02-17T01:52:21.274Z,60.96
2023-02-17T01:54:55.334Z,60.89
2023-02-17T01:57:27.400Z,60.88
2023-02-17T01:59:56.154Z,60.92
2023-02-17T02:02:24.370Z,60.88
2023-02-17T02:04:54.734Z,60.79
2023-02-17T02:07:33.289Z,60.72
2023-02-17T02:10:03.010Z,60.67
2023-02-17T02:12:35.457Z,60.63
2023-02-17T02:15:09.383Z,60.55
2023-02-17T02:18:16.166Z,60.47
2023-02-17T02:21:07.908Z,60.52
2023-02-17T02:24:04.860Z,60.47
2023-02-17T02:27:00.117Z,60.47
2023-02-17T02:29:57.731Z,60.42
2023-02-17T02:32:49.690Z,60.34
2023-02-17T02:35:26.848Z,60.25
2023-02-17T02:38:09.632Z,60.13
2023-02-17T02:40:44.684Z,60.10
2023-02-17T02:43:14.846Z,60.04
2023-02-17T02:45:43.154Z,59.92
2023-02-17T02:48:11.238Z,59.87
2023-02-17T02:50:59.033Z,59.79
2023-02-17T02:54:07.703Z,59.79
2023-02-17T02:56:58.126Z,59.85
2023-02-17T02:59:35.202Z,59.72
2023-02-17T03:02:17.644Z,59.65
2023-02-17T03:04:59.477Z,59.59
2023-02-17T03:07:55.650Z,59.53
2023-02-17T03:23:43.985Z,63.19
2023-02-17T03:26:12.028Z,63.74
2023-02-17T03:28:40.972Z,63.53
2023-02-17T03:31:09.000Z,63.16
2023-02-17T03:33:36.980Z,62.71
2023-02-17T03:36:05.413Z,62.42
2023-02-17T03:38:33.470Z,62.14
2023-02-17T03:41:01.321Z,61.85
2023-02-17T03:43:29.161Z,61.55
2023-02-17T03:45:57.066Z,61.42
2023-02-17T03:48:24.929Z,61.33
2023-02-17T03:50:52.774Z,61.29
2023-02-17T03:53:20.801Z,61.19
2023-02-17T03:55:48.592Z,61.12
2023-02-17T03:58:16.798Z,61.17
2023-02-17T04:00:44.600Z,61.19
2023-02-17T04:03:12.441Z,61.04
2023-02-17T04:05:40.247Z,61.03
2023-02-17T04:08:08.414Z,61.03
2023-02-17T04:10:36.223Z,60.98
2023-02-17T04:13:04.127Z,60.97
2023-02-17T04:15:32.518Z,61.00
2023-02-17T04:18:00.323Z,60.96
2023-02-17T04:20:28.340Z,60.89
2023-02-17T04:22:56.291Z,60.81
2023-02-17T04:25:24.339Z,60.82
2023-02-17T04:27:52.128Z,60.79
2023-02-17T04:30:22.171Z,60.79
2023-02-17T04:37:22.061Z,60.94
2023-02-17T04:39:49.888Z,60.73
2023-02-17T04:42:17.982Z,60.77
2023-02-17T04:44:45.896Z,60.72
2023-02-17T04:47:13.781Z,60.72
2023-02-17T04:49:41.721Z,60.66
2023-02-17T04:52:09.592Z,60.62
2023-02-17T04:54:37.702Z,60.58
2023-02-17T04:57:05.631Z,60.52
2023-02-17T04:59:33.588Z,60.61
2023-02-17T05:02:01.401Z,60.71
2023-02-17T05:04:29.591Z,60.65
2023-02-17T05:06:57.360Z,60.58
2023-02-17T05:09:25.437Z,60.61
2023-02-17T05:11:53.325Z,60.66
2023-02-17T05:14:21.336Z,60.60
2023-02-17T05:16:49.213Z,60.69
2023-02-17T05:19:17.109Z,60.69
2023-02-17T05:21:45.008Z,60.64
2023-02-17T05:24:13.031Z,60.62
2023-02-17T05:26:40.990Z,60.56
2023-02-17T05:29:08.897Z,60.62
2023-02-17T05:31:37.152Z,60.64
2023-02-17T05:34:05.143Z,60.66
2023-02-17T05:36:32.928Z,60.63
2023-02-17T05:39:00.829Z,60.54
2023-02-17T05:41:28.806Z,60.67
2023-02-17T05:43:56.731Z,60.52
2023-02-17T05:46:24.553Z,60.58
2023-02-17T05:48:52.378Z,60.59
2023-02-17T05:51:20.243Z,60.62
2023-02-17T05:58:21.690Z,60.92
2023-02-17T06:00:49.729Z,60.82
2023-02-17T06:03:17.641Z,60.84
2023-02-17T06:05:45.976Z,60.76
2023-02-17T06:12:48.247Z,60.90
2023-02-17T06:15:16.208Z,60.77
2023-02-17T06:22:19.528Z,60.73
2023-02-17T06:24:47.455Z,60.52
2023-02-17T06:27:15.354Z,60.46
2023-02-17T06:29:44.705Z,60.46
2023-02-17T06:32:12.606Z,60.57
2023-02-17T06:34:40.370Z,60.60
2023-02-17T06:37:08.243Z,60.55
2023-02-17T06:39:36.025Z,60.61
2023-02-17T06:42:04.099Z,60.56
2023-02-17T06:44:31.894Z,60.52
2023-02-17T06:46:59.903Z,60.50
2023-02-17T06:49:27.889Z,60.44
2023-02-17T06:51:55.712Z,60.45
2023-02-17T06:54:23.533Z,60.28
2023-02-17T06:56:51.379Z,60.18
2023-02-17T06:59:19.190Z,60.10
2023-02-17T07:01:49.468Z,59.96
2023-02-17T07:04:17.710Z,60.06
2023-02-17T07:06:45.566Z,59.86
2023-02-17T07:09:14.011Z,60.00
2023-02-17T07:11:42.832Z,59.83
2023-02-17T07:14:11.029Z,59.84
2023-02-17T07:16:39.626Z,59.87
2023-02-17T07:19:07.526Z,59.90
2023-02-17T07:21:36.125Z,59.69
2023-02-17T07:24:04.112Z,59.75
2023-02-17T07:26:32.027Z,59.83
2023-02-17T07:29:01.251Z,59.87
2023-02-17T07:31:29.218Z,59.74
2023-02-17T07:33:57.482Z,59.25
2023-02-17T07:36:25.332Z,57.96
2023-02-17T07:38:53.262Z,58.07
2023-02-17T07:41:24.712Z,60.35
2023-02-17T07:43:57.377Z,62.02
2023-02-17T07:46:26.636Z,63.19
2023-02-17T07:48:57.866Z,62.68
2023-02-17T07:51:26.877Z,62.22
2023-02-17T07:53:55.075Z,61.54
2023-02-17T07:56:23.544Z,61.25
2023-02-17T07:58:51.870Z,61.02
2023-02-17T08:01:25.393Z,59.92
2023-02-17T08:03:53.728Z,59.74
2023-02-17T08:06:24.041Z,59.03
2023-02-17T08:09:11.773Z,57.87
2023-02-17T08:11:59.341Z,59.30
2023-02-17T08:14:29.884Z,60.70
2023-02-17T08:16:59.913Z,63.57
2023-02-17T08:19:39.487Z,62.35
2023-02-17T08:22:16.069Z,61.67
2023-02-17T08:24:45.194Z,61.09
2023-02-17T08:27:15.294Z,60.43
2023-02-17T08:29:44.915Z,59.94
2023-02-17T08:32:14.858Z,58.60
2023-02-17T08:34:43.422Z,59.00
2023-02-17T08:37:11.645Z,59.61
2023-02-17T08:39:39.942Z,59.21
2023-02-17T08:42:07.934Z,59.90
2023-02-17T08:44:37.952Z,61.35
2023-02-17T08:47:10.957Z,61.13
2023-02-17T08:49:43.031Z,62.28
2023-02-17T08:52:13.003Z,62.00
2023-02-17T08:54:43.950Z,61.68
2023-02-17T08:57:15.961Z,61.05
2023-02-17T08:59:51.033Z,59.09
2023-02-17T09:02:22.984Z,56.85
2023-02-17T09:04:55.015Z,58.83
2023-02-17T09:07:26.467Z,59.94
2023-02-17T09:09:58.975Z,60.97
2023-02-17T09:12:30.980Z,61.97
2023-02-17T09:15:02.018Z,62.46
2023-02-17T09:17:34.068Z,62.24
2023-02-17T09:20:11.216Z,61.73
2023-02-17T09:22:46.988Z,61.22
2023-02-17T09:25:19.049Z,60.76
2023-02-17T09:27:51.021Z,60.51
2023-02-17T09:30:22.094Z,60.10
2023-02-17T09:32:54.004Z,59.73
2023-02-17T09:35:27.013Z,58.78
2023-02-17T09:37:58.008Z,58.34
2023-02-17T09:41:05.391Z,58.37
2023-02-17T09:43:35.513Z,60.49
2023-02-17T09:52:31.992Z,62.49
2023-02-17T09:55:06.165Z,62.22
2023-02-17T09:57:39.630Z,61.08
2023-02-17T10:00:14.509Z,59.91
2023-02-17T10:02:55.106Z,58.45
2023-02-17T10:05:28.154Z,57.77
2023-02-17T10:08:13.048Z,58.52
2023-02-17T10:10:56.923Z,59.35
2023-02-17T10:13:27.722Z,59.29
2023-02-17T10:16:03.345Z,60.58
2023-02-17T10:18:39.804Z,60.87
2023-02-17T10:21:13.317Z,62.37
2023-02-17T10:23:41.425Z,63.56
2023-02-17T10:26:35.081Z,63.70
2023-02-17T10:29:14.650Z,62.95
2023-02-17T10:31:46.931Z,62.01
2023-02-17T10:34:37.282Z,61.04
2023-02-17T10:37:15.122Z,61.14
2023-02-17T10:39:52.448Z,60.85
2023-02-17T10:42:30.264Z,60.49
2023-02-17T10:45:18.905Z,60.37
2023-02-17T10:47:47.448Z,59.26
2023-02-17T10:50:22.474Z,59.34
2023-02-17T10:52:53.462Z,60.25
2023-02-17T10:55:25.796Z,61.99
2023-02-17T10:58:20.420Z,63.57
2023-02-17T11:00:53.881Z,63.20
2023-02-17T11:03:24.741Z,62.42
2023-02-17T11:06:01.901Z,62.24
2023-02-17T11:08:56.945Z,61.86
2023-02-17T11:11:30.712Z,61.72
2023-02-17T11:14:20.838Z,61.48
2023-02-17T11:16:59.345Z,60.72
2023-02-17T11:19:27.632Z,60.89
2023-02-17T11:21:58.795Z,60.77
2023-02-17T11:24:28.362Z,60.47
2023-02-17T11:27:00.810Z,59.97
2023-02-17T11:29:30.188Z,60.14
2023-02-17T11:32:11.238Z,59.71
2023-02-17T11:34:42.230Z,59.02
2023-02-17T11:37:13.314Z,58.35
2023-02-17T11:39:44.169Z,59.69
2023-02-17T11:42:17.164Z,62.08
2023-02-17T11:44:45.926Z,63.87
2023-02-17T11:47:32.604Z,62.15
2023-02-17T11:50:38.904Z,61.46
2023-02-17T11:53:08.310Z,60.89
2023-02-17T11:55:59.665Z,60.28
2023-02-17T11:58:59.918Z,59.91
2023-02-17T12:01:52.386Z,59.98
2023-02-17T12:04:39.095Z,59.33
2023-02-17T12:07:20.540Z,58.70
2023-02-17T12:10:12.202Z,59.50
2023-02-17T12:13:01.584Z,59.94
2023-02-17T12:15:44.820Z,62.84
2023-02-17T12:18:34.783Z,63.78
2023-02-17T12:21:48.774Z,62.56
2023-02-17T12:24:48.553Z,62.12
2023-02-17T12:27:51.641Z,61.63
2023-02-17T12:30:50.792Z,61.43
2023-02-17T12:33:43.180Z,61.10
2023-02-17T12:36:14.748Z,61.03
2023-02-17T12:38:53.403Z,60.59
2023-02-17T12:41:29.609Z,60.67
2023-02-17T12:44:02.793Z,60.44
2023-02-17T12:46:44.298Z,60.07
2023-02-17T12:49:37.545Z,60.10
2023-02-17T12:52:19.749Z,60.10
2023-02-17T12:55:20.930Z,60.02
2023-02-17T12:57:56.015Z,59.84
2023-02-17T13:00:30.465Z,59.95
2023-02-17T13:02:59.752Z,60.04
2023-02-17T13:05:40.113Z,60.13
2023-02-17T13:08:22.644Z,60.28
2023-02-17T13:11:02.030Z,60.53
2023-02-17T13:13:32.763Z,60.42
2023-02-17T13:16:13.398Z,60.50
2023-02-17T13:18:43.918Z,60.83
2023-02-17T13:21:31.896Z,60.51
2023-02-17T13:24:13.015Z,60.60
2023-02-17T13:26:43.076Z,60.80
2023-02-17T13:29:32.334Z,60.87
2023-02-17T13:32:05.213Z,61.30
2023-02-17T13:34:42.507Z,61.32
2023-02-17T13:37:34.062Z,61.15
2023-02-17T13:40:29.801Z,61.10
2023-02-17T13:42:59.551Z,61.59
2023-02-17T13:45:29.971Z,61.54
2023-02-17T13:48:01.171Z,61.55
2023-02-17T13:50:39.581Z,61.73
2023-02-17T13:53:27.788Z,61.38
2023-02-17T13:56:02.065Z,62.00
2023-02-17T13:58:40.056Z,61.52
2023-02-17T14:01:20.843Z,61.48
2023-02-17T14:03:52.362Z,61.76
2023-02-17T14:06:41.073Z,61.55
2023-02-17T14:09:33.215Z,61.52
2023-02-17T14:12:04.467Z,61.71
2023-02-17T14:14:36.153Z,61.72
2023-02-17T14:17:09.357Z,61.73
2023-02-17T14:19:46.241Z,62.17
2023-02-17T14:22:31.100Z,61.88
2023-02-17T14:25:20.885Z,61.69
2023-02-17T14:27:51.114Z,61.81
2023-02-17T14:30:34.005Z,61.90
2023-02-17T14:33:08.906Z,62.39
2023-02-17T14:35:39.592Z,62.24
2023-02-17T14:38:10.505Z,62.20
2023-02-17T14:40:40.173Z,62.52
2023-02-17T14:43:08.207Z,62.96
2023-02-17T14:45:36.156Z,62.78
2023-02-17T14:48:04.445Z,62.53
2023-02-17T14:50:34.706Z,62.76
2023-02-17T14:53:02.542Z,62.48
2023-02-17T14:55:39.009Z,62.73
2023-02-17T14:58:06.910Z,62.50
2023-02-17T15:00:35.146Z,62.54
2023-02-17T15:03:03.064Z,62.52
2023-02-17T15:05:32.015Z,62.68
2023-02-17T15:08:01.602Z,62.83
2023-02-17T15:10:29.895Z,63.23
2023-02-17T15:12:58.170Z,62.94
2023-02-17T15:15:26.058Z,63.30
2023-02-17T15:17:53.903Z,63.16
2023-02-17T15:20:21.869Z,63.01
2023-02-17T15:22:52.986Z,63.22
2023-02-17T15:25:24.468Z,63.25
2023-02-17T15:27:52.680Z,63.12
2023-02-17T15:30:21.587Z,63.22
2023-02-17T15:32:49.601Z,63.31
2023-02-17T15:35:23.699Z,63.60
2023-02-17T15:37:52.215Z,63.33
2023-02-17T15:40:24.965Z,63.66
2023-02-17T15:43:01.516Z,63.55
2023-02-17T15:45:30.962Z,63.75
2023-02-17T15:48:07.917Z,63.86
2023-02-17T15:50:35.884Z,63.94
2023-02-17T15:53:03.768Z,63.94
2023-02-17T15:55:33.995Z,64.76
2023-02-17T15:58:05.421Z,64.19
2023-02-17T16:00:35.528Z,63.80
2023-02-17T16:03:03.753Z,64.73
2023-02-17T16:05:33.729Z,64.24
2023-02-17T16:08:01.534Z,64.03
2023-02-17T16:10:30.483Z,64.39
2023-02-17T16:13:01.216Z,64.37
2023-02-17T16:15:32.105Z,64.19
2023-02-17T16:18:00.234Z,64.13
2023-02-17T16:20:34.662Z,64.00
2023-02-17T16:23:03.623Z,64.59
2023-02-17T16:25:31.537Z,64.20
2023-02-17T16:28:00.132Z,64.44
2023-02-17T16:30:34.714Z,64.25
2023-02-17T16:33:03.611Z,64.63
2023-02-17T16:35:33.241Z,64.44
2023-02-17T16:38:22.749Z,65.01
2023-02-17T16:40:52.677Z,65.03
2023-02-17T16:43:23.916Z,64.48
2023-02-17T16:45:56.986Z,64.79
2023-02-17T16:48:27.860Z,65.07
2023-02-17T16:50:56.429Z,64.58
2023-02-17T16:53:24.847Z,65.27
2023-02-17T16:55:55.297Z,65.76
2023-02-17T16:58:27.740Z,64.99
2023-02-17T17:07:37.192Z,65.13
2023-02-17T17:10:17.605Z,65.37
2023-02-17T17:12:47.252Z,65.11
2023-02-17T17:15:17.669Z,65.19
2023-02-17T17:17:52.989Z,65.07
2023-02-17T17:20:32.065Z,65.49
2023-02-17T17:23:02.056Z,65.60
2023-02-17T17:25:32.128Z,65.30
2023-02-17T17:28:00.054Z,65.43
2023-02-17T17:30:35.659Z,65.59
2023-02-17T17:33:03.925Z,65.60
2023-02-17T17:35:32.503Z,65.62
2023-02-17T17:38:00.458Z,65.57
2023-02-17T17:40:48.444Z,65.64
2023-02-17T17:43:21.950Z,65.64
2023-02-17T17:45:51.313Z,65.53
2023-02-17T17:48:19.487Z,65.58
2023-02-17T17:50:49.607Z,65.82
2023-02-17T17:53:17.501Z,65.87
2023-02-17T17:55:47.817Z,65.64
2023-02-17T17:58:17.410Z,65.68
2023-02-17T18:00:45.630Z,65.87
2023-02-17T18:03:13.735Z,65.82
2023-02-17T18:05:58.598Z,66.28
2023-02-17T18:08:27.776Z,66.37
2023-02-17T18:10:55.870Z,66.30
2023-02-17T18:13:25.067Z,66.26
2023-02-17T18:15:53.833Z,66.20
2023-02-17T18:18:22.746Z,66.45
2023-02-17T18:20:51.331Z,66.82
2023-02-17T18:23:19.215Z,67.02
2023-02-17T18:25:47.268Z,66.89
2023-02-17T18:28:15.244Z,66.91
2023-02-17T18:30:43.546Z,67.05
2023-02-17T18:33:11.528Z,68.05
2023-02-17T18:35:40.267Z,67.72
2023-02-17T18:38:08.160Z,67.18
2023-02-17T18:40:39.640Z,67.64
2023-02-17T18:43:09.185Z,67.95
2023-02-17T18:45:37.000Z,68.00
2023-02-17T18:48:04.934Z,67.58
2023-02-17T18:50:33.127Z,67.49
2023-02-17T18:53:03.620Z,67.51
2023-02-17T18:55:33.035Z,67.90
2023-02-17T18:58:00.891Z,67.79
2023-02-17T19:00:29.049Z,67.89
2023-02-17T19:02:56.962Z,67.63
2023-02-17T19:05:28.775Z,67.78
2023-02-17T19:07:56.586Z,68.40
2023-02-17T19:10:24.450Z,67.86
2023-02-17T19:12:52.307Z,68.42
2023-02-17T19:15:21.129Z,68.14
2023-02-17T19:17:49.065Z,67.86
2023-02-17T19:20:17.231Z,68.72
2023-02-17T19:22:45.385Z,67.89
2023-02-17T19:25:13.245Z,68.56
2023-02-17T19:27:42.129Z,68.13
2023-02-17T19:30:11.381Z,68.07
2023-02-17T19:32:39.519Z,67.96
2023-02-17T19:35:09.989Z,67.96
2023-02-17T19:37:39.337Z,68.30
2023-02-17T19:40:07.917Z,67.97
2023-02-17T19:42:36.594Z,68.37
2023-02-17T19:45:04.993Z,68.26
2023-02-17T19:47:32.993Z,68.42
2023-02-17T19:50:00.881Z,68.52
2023-02-17T19:52:28.817Z,69.32
2023-02-17T19:54:56.845Z,69.94
2023-02-17T19:57:24.850Z,69.75
2023-02-17T19:59:52.799Z,69.39
2023-02-17T20:02:20.733Z,69.23
2023-02-17T20:04:48.656Z,68.78
2023-02-17T20:07:16.500Z,68.95
2023-02-17T20:09:44.322Z,69.03
2023-02-17T20:12:12.169Z,69.45
2023-02-17T20:14:39.994Z,69.41
2023-02-17T20:17:08.518Z,69.42
2023-02-17T20:19:38.552Z,69.33
2023-02-17T20:22:08.088Z,69.63
2023-02-17T20:24:37.556Z,69.34
2023-02-17T20:27:05.470Z,69.47
2023-02-17T20:29:35.592Z,69.32
2023-02-17T20:32:03.681Z,69.42
2023-02-17T20:34:39.381Z,69.57
2023-02-17T20:37:08.995Z,70.09
2023-02-17T20:39:38.833Z,69.43
2023-02-17T20:42:07.022Z,69.86
2023-02-17T20:44:35.554Z,69.65
2023-02-17T20:47:03.874Z,69.94
2023-02-17T20:49:31.635Z,70.48
2023-02-17T20:51:59.517Z,69.75
2023-02-17T20:54:27.468Z,70.05
2023-02-17T20:56:57.845Z,69.45
2023-02-17T20:59:26.005Z,70.06
2023-02-17T21:01:53.924Z,69.57
2023-02-17T21:04:21.777Z,69.82
2023-02-17T21:06:50.868Z,69.40
2023-02-17T21:09:19.479Z,69.82
2023-02-17T21:11:47.969Z,69.41
2023-02-17T21:14:16.359Z,69.66
2023-02-17T21:16:44.987Z,69.69
2023-02-17T21:19:13.140Z,69.91
2023-02-17T21:21:41.143Z,69.71
2023-02-17T21:24:09.356Z,69.84
2023-02-17T21:26:37.308Z,69.76
2023-02-17T21:29:05.540Z,70.03
2023-02-17T21:31:33.925Z,70.75
2023-02-17T21:34:02.021Z,70.63
2023-02-17T21:36:30.332Z,70.26
2023-02-17T21:38:59.207Z,70.87
2023-02-17T21:41:27.784Z,70.59
2023-02-17T21:44:14.570Z,71.04
2023-02-17T21:46:43.451Z,70.65
2023-02-17T21:49:12.694Z,70.95
2023-02-17T21:51:41.396Z,70.62
2023-02-17T21:54:10.626Z,70.78
2023-02-17T21:56:38.521Z,70.76
2023-02-17T21:59:06.881Z,70.55
2023-02-17T22:01:35.202Z,71.36
2023-02-17T22:04:03.429Z,71.35
2023-02-17T22:06:36.505Z,70.84
2023-02-17T22:09:06.996Z,71.38
2023-02-17T22:11:38.721Z,72.82
2023-02-17T22:14:14.712Z,73.10
2023-02-17T22:16:44.114Z,73.52
2023-02-17T22:19:15.858Z,73.42
2023-02-17T22:21:44.714Z,73.65
2023-02-17T22:24:13.669Z,73.54
2023-02-17T22:26:42.726Z,73.15
2023-02-17T22:29:10.566Z,73.11
2023-02-17T22:31:38.462Z,73.25
2023-02-17T22:34:10.030Z,73.33
2023-02-17T22:36:38.596Z,73.49
2023-02-17T22:39:08.486Z,73.14
2023-02-17T22:41:36.563Z,72.67
2023-02-17T22:44:04.594Z,72.77
2023-02-17T22:46:33.649Z,72.61
2023-02-17T22:49:01.611Z,72.62
2023-02-17T22:51:40.080Z,72.09
2023-02-17T22:54:09.248Z,72.13
2023-02-17T22:56:37.391Z,71.57
2023-02-17T22:59:06.118Z,71.74
2023-02-17T23:01:36.472Z,69.89
2023-02-17T23:04:05.473Z,67.50
2023-02-17T23:06:36.297Z,64.96
2023-02-17T23:09:05.979Z,65.88
2023-02-17T23:11:55.092Z,67.30
2023-02-17T23:14:34.514Z,66.92
2023-02-17T23:17:09.473Z,67.94
2023-02-17T23:19:38.712Z,67.39
2023-02-17T23:22:10.513Z,68.09
2023-02-17T23:24:38.307Z,67.14
2023-02-17T23:34:44.119Z,69.09
2023-02-17T23:37:11.925Z,68.13
2023-02-17T23:39:39.961Z,68.03
2023-02-17T23:42:07.769Z,64.59
2023-02-17T23:44:35.692Z,64.62
2023-02-17T23:47:04.455Z,63.86
2023-02-17T23:49:32.275Z,63.74
2023-02-17T23:52:00.606Z,62.40
2023-02-17T23:54:28.874Z,57.96
2023-02-17T23:56:56.752Z,60.38
2023-02-17T23:59:24.488Z,63.70
